Estación Meteorológica Peña el Pijo (Robertgarden) [ 07/19/24 11:57:49 CEST ]

Fecha Hora Presion(HPa) Temp (°C) Humedad % Rocio (°C) Viento ( m/s) Direccion Lluvia 1Hora(mm) Lluvia 24H(mm) LLuvia Total(mm)
2008-Aug-25 01:05:19 1014.000 14.9 59 7.0         232.56
2008-Aug-25 02:05:14 1014.100 14.1 60 6.5         232.56
2008-Aug-25 03:05:17 1013.700 12.8 64 6.1         232.56
2008-Aug-25 04:05:14 1013.500 13.1 61 5.7         232.56
2008-Aug-25 05:05:17 1013.600 12.4 65 6.0         232.56
2008-Aug-25 06:05:21 1013.700 13.1 63 6.2         232.56
2008-Aug-25 07:05:18 1013.800 12.3 65 5.9         232.56
2008-Aug-25 08:05:22 1014.200 11.6 70 6.3         232.56
2008-Aug-25 09:05:15 1014.500 18.2 58 9.8         232.56
2008-Aug-25 10:05:13 1014.400 24.6 39 9.7         232.56
2008-Aug-25 11:05:16 1014.600 29.9 26 8.1         232.56
2008-Aug-25 12:05:14 1014.600 31.2 21 6.2         232.56
2008-Aug-25 13:05:16 1014.400 33.7 20 7.7 1.2 NNE     232.56
2008-Aug-25 14:05:14 1014.100 31.3 24 8.1         232.56
2008-Aug-25 15:05:14 1013.800 32.3 22 7.7 1.2 NNE     232.56
2008-Aug-25 16:05:14 1013.700 29.4 28 8.9         232.56
2008-Aug-25 17:05:17 1013.400 29.6 29 9.6         232.56
2008-Aug-25 18:05:55 1013.400 27.9 37 11.8         232.56
2008-Aug-25 19:05:54 1013.500 30.3 35 13.1 1.5 NNE     232.56
2008-Aug-25 20:05:55 1013.800 26.2 42 12.3         232.56
2008-Aug-25 21:05:55 1014.600 24.3 45 11.6         232.56
2008-Aug-25 22:05:55 1015.200 22.6 48 11.0         232.56
2008-Aug-25 23:05:53 1015.500 19.8 54 10.2         232.56

Temperatura Máxima:33°    Temperatura Mínima:11°
Presión Máxima:1015.500 Hpa    Presión Mínima:1013.400 Hpa


Volver